createdAt,value
2018-01-23T00:01:31.056Z,100.00
2018-01-23T00:03:58.563Z,100.00
2018-01-23T00:06:26.117Z,100.00
2018-01-23T00:08:53.649Z,100.00
2018-01-23T00:11:21.225Z,100.00
2018-01-23T00:13:48.750Z,100.00
2018-01-23T00:16:16.326Z,100.00
2018-01-23T00:18:43.838Z,100.00
2018-01-23T00:21:11.398Z,100.00
2018-01-23T00:23:38.914Z,100.00
2018-01-23T00:26:06.410Z,100.00
2018-01-23T00:28:33.955Z,100.00
2018-01-23T00:31:01.467Z,100.00
2018-01-23T00:33:29.112Z,100.00
2018-01-23T00:35:56.601Z,100.00
2018-01-23T00:38:24.115Z,100.00
2018-01-23T00:40:51.628Z,100.00
2018-01-23T00:43:19.155Z,100.00
2018-01-23T00:45:46.662Z,100.00
2018-01-23T00:48:14.160Z,100.00
2018-01-23T00:50:41.760Z,100.00
2018-01-23T00:53:09.246Z,100.00
2018-01-23T00:55:36.779Z,100.00
2018-01-23T00:58:04.299Z,100.00
2018-01-23T01:00:31.896Z,100.00
2018-01-23T01:02:59.493Z,100.00
2018-01-23T01:05:27.044Z,100.00
2018-01-23T01:07:55.094Z,100.00
2018-01-23T01:10:22.609Z,100.00
2018-01-23T01:12:50.173Z,100.00
2018-01-23T01:15:17.683Z,100.00
2018-01-23T01:17:45.200Z,100.00
2018-01-23T01:20:12.721Z,100.00
2018-01-23T01:22:40.217Z,100.00
2018-01-23T01:25:07.746Z,100.00
2018-01-23T01:27:35.281Z,100.00
2018-01-23T01:30:02.830Z,100.00
2018-01-23T01:32:30.526Z,100.00
2018-01-23T01:34:58.056Z,100.00
2018-01-23T01:37:25.614Z,100.00
2018-01-23T01:39:53.139Z,100.00
2018-01-23T01:42:20.667Z,100.00
2018-01-23T01:44:48.225Z,100.00
2018-01-23T01:47:15.749Z,100.00
2018-01-23T01:49:43.257Z,100.00
2018-01-23T01:52:10.762Z,100.00
2018-01-23T01:54:38.269Z,100.00
2018-01-23T01:57:05.798Z,100.00
2018-01-23T01:59:33.297Z,100.00
2018-01-23T02:02:00.922Z,100.00
2018-01-23T02:04:28.483Z,100.00
2018-01-23T02:06:56.450Z,100.00
2018-01-23T02:09:23.993Z,100.00
2018-01-23T02:11:51.573Z,100.00
2018-01-23T02:14:19.245Z,100.00
2018-01-23T02:16:46.805Z,100.00
2018-01-23T02:19:14.348Z,100.00
2018-01-23T02:21:41.867Z,100.00
2018-01-23T02:24:09.366Z,100.00
2018-01-23T02:26:36.889Z,100.00
2018-01-23T02:29:04.459Z,100.00
2018-01-23T02:31:31.974Z,100.00
2018-01-23T02:33:59.488Z,100.00
2018-01-23T02:36:27.102Z,100.00
2018-01-23T02:38:54.636Z,100.00
2018-01-23T02:41:22.206Z,100.00
2018-01-23T02:43:49.838Z,100.00
2018-01-23T02:46:17.390Z,100.00
2018-01-23T02:48:44.940Z,100.00
2018-01-23T02:51:12.491Z,100.00
2018-01-23T02:53:40.038Z,100.00
2018-01-23T02:56:08.153Z,100.00
2018-01-23T02:58:35.652Z,100.00
2018-01-23T03:01:03.186Z,100.00
2018-01-23T03:03:30.725Z,100.00
2018-01-23T03:05:58.287Z,100.00
2018-01-23T03:08:25.861Z,100.00
2018-01-23T03:10:53.450Z,100.00
2018-01-23T03:13:20.997Z,100.00
2018-01-23T03:15:48.533Z,100.00
2018-01-23T03:18:16.029Z,100.00
2018-01-23T03:20:43.643Z,100.00
2018-01-23T03:23:11.232Z,100.00
2018-01-23T03:25:38.725Z,100.00
2018-01-23T03:28:06.348Z,100.00
2018-01-23T03:30:33.926Z,100.00
2018-01-23T03:33:01.478Z,100.00
2018-01-23T03:35:29.002Z,100.00
2018-01-23T03:37:56.517Z,100.00
2018-01-23T03:40:24.050Z,100.00
2018-01-23T03:42:51.724Z,100.00
2018-01-23T03:45:19.269Z,100.00
2018-01-23T03:47:46.811Z,100.00
2018-01-23T03:50:14.338Z,100.00
2018-01-23T03:52:41.835Z,100.00
2018-01-23T03:55:09.348Z,100.00
2018-01-23T03:57:36.863Z,100.00
2018-01-23T04:00:04.494Z,100.00
2018-01-23T04:02:31.978Z,100.00
2018-01-23T04:04:59.526Z,100.00
2018-01-23T04:07:27.150Z,100.00
2018-01-23T04:09:54.653Z,100.00
2018-01-23T04:12:22.222Z,100.00
2018-01-23T04:14:49.721Z,100.00
2018-01-23T04:17:17.469Z,100.00
2018-01-23T04:19:44.984Z,100.00
2018-01-23T04:22:12.546Z,100.00
2018-01-23T04:24:40.056Z,100.00
2018-01-23T04:27:07.585Z,100.00
2018-01-23T04:29:35.136Z,100.00
2018-01-23T04:32:03.419Z,100.00
2018-01-23T04:34:30.955Z,100.00
2018-01-23T04:36:58.454Z,100.00
2018-01-23T04:39:26.028Z,100.00
2018-01-23T04:41:53.556Z,100.00
2018-01-23T04:44:21.103Z,100.00
2018-01-23T04:46:48.654Z,100.00
2018-01-23T04:49:16.174Z,100.00
2018-01-23T04:51:43.705Z,100.00
2018-01-23T04:54:11.231Z,100.00
2018-01-23T04:56:38.737Z,100.00
2018-01-23T04:59:06.424Z,100.00
2018-01-23T05:01:33.952Z,100.00
2018-01-23T05:04:02.007Z,100.00
2018-01-23T05:06:29.515Z,100.00
2018-01-23T05:08:57.041Z,100.00
2018-01-23T05:11:24.553Z,100.00
2018-01-23T05:13:52.103Z,100.00
2018-01-23T05:16:19.614Z,100.00
2018-01-23T05:18:47.106Z,100.00
2018-01-23T05:21:14.627Z,100.00
2018-01-23T05:23:42.162Z,100.00
2018-01-23T05:26:09.771Z,100.00
2018-01-23T05:28:37.304Z,100.00
2018-01-23T05:31:04.839Z,100.00
2018-01-23T05:33:32.354Z,100.00
2018-01-23T05:35:59.945Z,100.00
2018-01-23T05:38:27.589Z,100.00
2018-01-23T05:40:55.144Z,100.00
2018-01-23T05:43:22.674Z,100.00
2018-01-23T05:45:51.503Z,100.00
2018-01-23T05:48:19.049Z,100.00
2018-01-23T05:50:46.569Z,100.00
2018-01-23T05:53:14.094Z,100.00
2018-01-23T05:55:41.623Z,100.00
2018-01-23T05:58:09.109Z,100.00
2018-01-23T06:00:36.629Z,100.00
2018-01-23T06:03:04.956Z,100.00
2018-01-23T06:05:39.358Z,100.00
2018-01-23T06:08:07.228Z,100.00
2018-01-23T06:10:34.817Z,100.00
2018-01-23T06:13:02.345Z,100.00
2018-01-23T06:15:29.866Z,100.00
2018-01-23T06:17:57.399Z,100.00
2018-01-23T06:20:24.932Z,100.00
2018-01-23T06:22:52.476Z,100.00
2018-01-23T06:25:20.006Z,100.00
2018-01-23T06:27:47.526Z,100.00
2018-01-23T06:30:15.050Z,100.00
2018-01-23T06:32:42.579Z,100.00
2018-01-23T06:35:10.065Z,100.00
2018-01-23T06:37:37.594Z,100.00
2018-01-23T06:40:05.143Z,100.00
2018-01-23T06:42:36.048Z,100.00
2018-01-23T06:45:03.567Z,100.00
2018-01-23T06:47:31.105Z,100.00
2018-01-23T06:49:58.604Z,100.00
2018-01-23T06:52:26.126Z,100.00
2018-01-23T06:54:53.631Z,100.00
2018-01-23T06:57:21.219Z,100.00
2018-01-23T06:59:48.729Z,100.00
2018-01-23T07:02:16.274Z,100.00
2018-01-23T07:04:43.873Z,100.00
2018-01-23T07:07:11.385Z,100.00
2018-01-23T07:09:38.884Z,100.00
2018-01-23T07:12:06.422Z,100.00
2018-01-23T07:14:34.063Z,100.00
2018-01-23T07:17:01.602Z,100.00
2018-01-23T07:19:29.125Z,100.00
2018-01-23T07:21:56.644Z,100.00
2018-01-23T07:24:25.167Z,100.00
2018-01-23T07:26:52.671Z,100.00
2018-01-23T07:29:20.221Z,100.00
2018-01-23T07:31:47.717Z,100.00
2018-01-23T07:34:15.214Z,100.00
2018-01-23T07:36:42.701Z,100.00
2018-01-23T07:39:10.199Z,100.00
2018-01-23T07:41:37.711Z,100.00
2018-01-23T07:44:05.301Z,100.00
2018-01-23T07:46:32.886Z,100.00
2018-01-23T07:49:00.441Z,100.00
2018-01-23T07:51:27.982Z,100.00
2018-01-23T07:53:55.513Z,100.00
2018-01-23T07:56:23.039Z,100.00
2018-01-23T07:58:50.566Z,100.00
2018-01-23T08:01:18.070Z,100.00
2018-01-23T08:03:45.631Z,100.00
2018-01-23T08:06:13.172Z,100.00
2018-01-23T08:08:40.688Z,100.00
2018-01-23T08:11:08.193Z,100.00
2018-01-23T08:13:35.692Z,100.00
2018-01-23T08:16:03.197Z,100.00
2018-01-23T08:18:30.743Z,100.00
2018-01-23T08:20:58.580Z,100.00
2018-01-23T08:23:26.112Z,100.00
2018-01-23T08:25:53.643Z,100.00
2018-01-23T08:28:21.157Z,100.00
2018-01-23T08:30:48.678Z,100.00
2018-01-23T08:33:17.203Z,100.00
2018-01-23T08:35:44.767Z,100.00
2018-01-23T08:38:12.258Z,100.00
2018-01-23T08:40:39.746Z,100.00
2018-01-23T08:43:07.251Z,100.00
2018-01-23T08:45:34.805Z,100.00
2018-01-23T08:48:02.324Z,100.00
2018-01-23T08:50:29.842Z,100.00
2018-01-23T08:52:57.400Z,100.00
2018-01-23T08:55:24.882Z,100.00
2018-01-23T08:57:52.406Z,100.00
2018-01-23T09:00:19.945Z,100.00
2018-01-23T09:02:47.479Z,100.00
2018-01-23T09:05:14.999Z,100.00
2018-01-23T09:07:42.488Z,100.00
2018-01-23T09:10:10.035Z,100.00
2018-01-23T09:12:37.614Z,100.00
2018-01-23T09:15:05.163Z,100.00
2018-01-23T09:17:32.675Z,100.00
2018-01-23T09:20:00.220Z,100.00
2018-01-23T09:22:27.954Z,100.00
2018-01-23T09:24:55.476Z,100.00
2018-01-23T09:27:23.118Z,100.00
2018-01-23T09:29:50.931Z,100.00
2018-01-23T09:32:18.474Z,100.00
2018-01-23T09:34:46.052Z,100.00
2018-01-23T09:37:13.621Z,100.00
2018-01-23T09:39:41.252Z,100.00
2018-01-23T09:42:08.798Z,100.00
2018-01-23T09:44:36.290Z,100.00
2018-01-23T09:47:03.828Z,100.00
2018-01-23T09:49:31.313Z,100.00
2018-01-23T09:51:58.932Z,100.00
2018-01-23T09:54:27.198Z,100.00
2018-01-23T09:56:54.708Z,100.00
2018-01-23T09:59:22.221Z,100.00
2018-01-23T10:01:49.777Z,100.00
2018-01-23T10:04:17.340Z,100.00
2018-01-23T10:06:44.893Z,100.00
2018-01-23T10:09:12.481Z,100.00
2018-01-23T10:11:40.023Z,100.00
2018-01-23T10:14:07.570Z,100.00
2018-01-23T10:16:35.098Z,100.00
2018-01-23T10:19:03.182Z,100.00
2018-01-23T10:21:30.752Z,100.00
2018-01-23T10:23:58.318Z,100.00
2018-01-23T10:26:25.843Z,100.00
2018-01-23T10:28:53.354Z,100.00
2018-01-23T10:31:20.898Z,100.00
2018-01-23T10:33:48.422Z,100.00
2018-01-23T10:36:15.980Z,100.00
2018-01-23T10:38:43.482Z,100.00
2018-01-23T10:41:11.033Z,99.83
2018-01-23T10:43:38.526Z,100.00
2018-01-23T10:46:06.075Z,100.00
2018-01-23T10:48:33.615Z,99.64
2018-01-23T10:51:01.126Z,99.58
2018-01-23T10:53:28.637Z,100.00
2018-01-23T10:55:56.157Z,99.63
2018-01-23T10:58:23.670Z,100.00
2018-01-23T11:00:56.786Z,99.44
2018-01-23T11:03:24.359Z,99.66
2018-01-23T11:05:51.921Z,98.75
2018-01-23T11:08:19.481Z,97.79
2018-01-23T11:10:47.060Z,97.76
2018-01-23T11:13:14.563Z,98.63
2018-01-23T11:15:42.079Z,98.46
2018-01-23T11:18:09.571Z,97.37
2018-01-23T11:20:37.078Z,97.77
2018-01-23T11:23:04.610Z,97.50
2018-01-23T11:25:32.140Z,98.42
2018-01-23T11:27:59.698Z,97.18
2018-01-23T11:30:27.217Z,97.40
2018-01-23T11:32:54.721Z,97.01
2018-01-23T11:35:22.232Z,96.05
2018-01-23T11:37:49.782Z,97.14
2018-01-23T11:40:17.299Z,97.11
2018-01-23T11:42:44.781Z,97.25
2018-01-23T11:45:12.263Z,96.39
2018-01-23T11:47:39.770Z,97.46
2018-01-23T11:50:07.261Z,96.95
2018-01-23T11:52:36.263Z,97.01
2018-01-23T11:55:03.851Z,96.13
2018-01-23T11:57:32.414Z,96.73
2018-01-23T11:59:59.942Z,96.68
2018-01-23T12:02:27.474Z,97.49
2018-01-23T12:04:55.007Z,96.53
2018-01-23T12:07:22.527Z,97.23
2018-01-23T12:09:50.038Z,95.50
2018-01-23T12:12:17.612Z,95.95
2018-01-23T12:14:45.156Z,94.95
2018-01-23T12:17:12.707Z,94.77
2018-01-23T12:19:40.214Z,95.12
2018-01-23T12:22:07.752Z,93.85
2018-01-23T12:24:35.254Z,94.43
2018-01-23T12:27:03.143Z,95.41
2018-01-23T12:29:30.702Z,95.25
2018-01-23T12:31:58.220Z,94.17
2018-01-23T12:34:25.785Z,94.47
2018-01-23T12:36:53.382Z,93.76
2018-01-23T12:39:20.946Z,93.15
2018-01-23T12:41:48.464Z,92.42
2018-01-23T12:44:16.003Z,91.15
2018-01-23T12:46:43.598Z,92.45
2018-01-23T12:49:11.182Z,91.84
2018-01-23T12:51:38.692Z,91.89
2018-01-23T12:54:06.243Z,90.50
2018-01-23T12:56:33.774Z,88.79
2018-01-23T12:59:01.337Z,89.43
2018-01-23T13:01:28.838Z,89.54
2018-01-23T13:03:56.391Z,90.02
2018-01-23T13:06:23.936Z,91.29
2018-01-23T13:08:51.458Z,91.04
2018-01-23T13:11:18.970Z,89.11
2018-01-23T13:13:46.500Z,89.42
2018-01-23T13:16:13.986Z,90.66
2018-01-23T13:18:41.483Z,89.16
2018-01-23T13:21:09.058Z,89.78
2018-01-23T13:23:36.555Z,90.94
2018-01-23T13:26:04.079Z,90.93
2018-01-23T13:28:31.649Z,91.43
2018-01-23T13:30:59.153Z,90.96
2018-01-23T13:33:26.689Z,90.00
2018-01-23T13:35:54.187Z,89.60
2018-01-23T13:38:21.687Z,89.71
2018-01-23T13:40:49.216Z,89.25
2018-01-23T13:43:16.736Z,89.75
2018-01-23T13:45:44.604Z,88.87
2018-01-23T13:48:12.130Z,89.04
2018-01-23T13:50:39.655Z,88.24
2018-01-23T13:53:07.169Z,88.78
2018-01-23T13:55:35.546Z,88.82
2018-01-23T13:58:03.596Z,88.94
2018-01-23T14:00:31.123Z,87.64
2018-01-23T14:02:58.641Z,87.63
2018-01-23T14:05:26.200Z,89.08
2018-01-23T14:07:53.695Z,87.54
2018-01-23T14:10:21.214Z,87.24
2018-01-23T14:12:48.733Z,85.11
2018-01-23T14:15:17.457Z,84.89
2018-01-23T14:17:44.966Z,86.87
2018-01-23T14:20:12.596Z,86.17
2018-01-23T14:22:40.113Z,86.98
2018-01-23T14:25:07.616Z,84.32
2018-01-23T14:27:36.205Z,86.50
2018-01-23T14:30:03.748Z,85.60
2018-01-23T14:32:32.381Z,85.53
2018-01-23T14:34:59.893Z,85.07
2018-01-23T14:37:27.428Z,86.15
2018-01-23T14:39:54.959Z,85.69
2018-01-23T14:42:22.992Z,84.57
2018-01-23T14:44:50.486Z,84.90
2018-01-23T14:47:17.965Z,85.51
2018-01-23T14:49:45.483Z,86.04
2018-01-23T14:52:12.999Z,85.66
2018-01-23T14:54:40.543Z,87.07
2018-01-23T14:57:08.085Z,84.98
2018-01-23T14:59:35.697Z,84.90
2018-01-23T15:02:03.935Z,84.93
2018-01-23T15:04:31.510Z,85.20
2018-01-23T15:06:59.075Z,84.99
2018-01-23T15:09:26.593Z,83.49
2018-01-23T15:11:54.076Z,86.36
2018-01-23T15:14:22.156Z,85.17
2018-01-23T15:16:49.653Z,85.17
2018-01-23T15:19:17.160Z,86.32
2018-01-23T15:21:44.672Z,84.84
2018-01-23T15:24:12.186Z,83.19
2018-01-23T15:26:39.653Z,85.12
2018-01-23T15:29:07.986Z,84.96
2018-01-23T15:31:37.375Z,83.95
2018-01-23T15:34:04.939Z,85.03
2018-01-23T15:36:32.486Z,86.55
2018-01-23T15:39:00.041Z,84.97
2018-01-23T15:41:27.540Z,85.69
2018-01-23T15:43:55.043Z,86.97
2018-01-23T15:46:22.528Z,87.63
2018-01-23T15:48:50.077Z,88.21
2018-01-23T15:51:17.593Z,88.59
2018-01-23T15:53:45.133Z,88.71
2018-01-23T15:56:12.608Z,88.34
2018-01-23T15:58:40.111Z,88.75
2018-01-23T16:01:07.626Z,88.03
2018-01-23T16:03:35.115Z,88.25
2018-01-23T16:06:02.602Z,88.46
2018-01-23T16:08:30.128Z,89.11
2018-01-23T16:10:57.624Z,87.69
2018-01-23T16:13:25.139Z,88.33
2018-01-23T16:15:52.648Z,88.84
2018-01-23T16:18:21.731Z,88.56
2018-01-23T16:20:49.258Z,88.90
2018-01-23T16:23:16.803Z,87.94
2018-01-23T16:25:44.271Z,87.58
2018-01-23T16:28:11.781Z,87.06
2018-01-23T16:30:39.255Z,88.26
2018-01-23T16:33:06.729Z,87.87
2018-01-23T16:35:34.211Z,88.10
2018-01-23T16:38:01.729Z,85.59
2018-01-23T16:40:29.224Z,85.91
2018-01-23T16:42:56.727Z,85.22
2018-01-23T16:45:24.239Z,84.64
2018-01-23T16:47:51.728Z,85.57
2018-01-23T16:50:19.237Z,86.37
2018-01-23T16:52:46.779Z,87.53
2018-01-23T16:55:14.285Z,87.40
2018-01-23T16:57:41.781Z,88.11
2018-01-23T17:00:09.264Z,86.49
2018-01-23T17:02:36.768Z,85.37
2018-01-23T17:05:04.267Z,86.06
2018-01-23T17:07:31.794Z,85.85
2018-01-23T17:09:59.261Z,85.79
2018-01-23T17:12:26.768Z,85.09
2018-01-23T17:14:54.274Z,85.51
2018-01-23T17:17:21.782Z,85.48
2018-01-23T17:19:49.262Z,86.17
2018-01-23T17:22:16.809Z,85.54
2018-01-23T17:24:44.321Z,86.39
2018-01-23T17:27:11.834Z,87.52
2018-01-23T17:29:39.336Z,86.73
2018-01-23T17:32:06.875Z,85.98
2018-01-23T17:34:34.485Z,85.87
2018-01-23T17:37:02.005Z,86.43
2018-01-23T17:39:29.504Z,86.17
2018-01-23T17:41:57.088Z,86.93
2018-01-23T17:44:24.588Z,86.94
2018-01-23T17:46:52.101Z,85.38
2018-01-23T17:49:19.643Z,85.55
2018-01-23T17:51:47.959Z,86.42
2018-01-23T17:54:15.445Z,86.12
2018-01-23T17:56:43.033Z,85.35
2018-01-23T17:59:10.606Z,86.74
2018-01-23T18:01:38.210Z,86.62
2018-01-23T18:04:06.400Z,87.50
2018-01-23T18:06:33.964Z,86.90
2018-01-23T18:09:01.497Z,86.74
2018-01-23T18:11:29.007Z,85.92
2018-01-23T18:13:56.550Z,86.01
2018-01-23T18:16:24.045Z,85.66
2018-01-23T18:18:51.558Z,87.01
2018-01-23T18:21:19.056Z,85.75
2018-01-23T18:23:46.591Z,86.90
2018-01-23T18:26:14.149Z,86.53
2018-01-23T18:28:41.663Z,86.31
2018-01-23T18:31:09.228Z,87.06
2018-01-23T18:33:36.777Z,86.94
2018-01-23T18:36:04.351Z,86.79
2018-01-23T18:38:31.899Z,87.04
2018-01-23T18:40:59.450Z,87.24
2018-01-23T18:43:27.074Z,86.93
2018-01-23T18:45:54.614Z,86.51
2018-01-23T18:48:22.163Z,86.80
2018-01-23T18:50:49.675Z,87.52
2018-01-23T18:53:17.193Z,86.26
2018-01-23T18:55:44.703Z,85.87
2018-01-23T18:58:12.211Z,88.92
2018-01-23T19:00:39.841Z,88.99
2018-01-23T19:03:07.483Z,90.46
2018-01-23T19:05:35.003Z,92.05
2018-01-23T19:08:02.892Z,91.02
2018-01-23T19:10:30.416Z,92.67
2018-01-23T19:12:57.941Z,92.75
2018-01-23T19:15:25.534Z,94.03
2018-01-23T19:17:53.106Z,95.11
2018-01-23T19:20:20.711Z,95.72
2018-01-23T19:22:48.246Z,96.26
2018-01-23T19:25:15.775Z,95.87
2018-01-23T19:27:43.282Z,96.24
2018-01-23T19:30:10.863Z,97.18
2018-01-23T19:32:38.461Z,97.55
2018-01-23T19:35:06.039Z,99.24
2018-01-23T19:37:33.577Z,100.00
2018-01-23T19:40:02.026Z,99.34
2018-01-23T19:42:29.614Z,100.00
2018-01-23T19:44:57.117Z,100.00
2018-01-23T19:47:24.652Z,100.00
2018-01-23T19:49:52.139Z,100.00
2018-01-23T19:52:19.647Z,100.00
2018-01-23T19:54:47.134Z,100.00
2018-01-23T19:57:14.666Z,100.00
2018-01-23T19:59:42.241Z,100.00
2018-01-23T20:02:09.786Z,100.00
2018-01-23T20:04:37.286Z,100.00
2018-01-23T20:07:04.835Z,100.00
2018-01-23T20:09:32.332Z,100.00
2018-01-23T20:11:59.850Z,100.00
2018-01-23T20:14:27.343Z,100.00
2018-01-23T20:16:54.845Z,100.00
2018-01-23T20:19:22.388Z,100.00
2018-01-23T20:21:49.874Z,100.00
2018-01-23T20:24:17.493Z,100.00
2018-01-23T20:26:45.013Z,100.00
2018-01-23T20:29:12.911Z,100.00
2018-01-23T20:31:40.437Z,100.00
2018-01-23T20:34:08.141Z,100.00
2018-01-23T20:36:35.794Z,100.00
2018-01-23T20:39:03.362Z,100.00
2018-01-23T20:41:30.888Z,100.00
2018-01-23T20:43:58.442Z,100.00
2018-01-23T20:46:26.218Z,100.00
2018-01-23T20:48:53.752Z,100.00
2018-01-23T20:51:21.306Z,99.22
2018-01-23T20:53:48.821Z,99.09
2018-01-23T20:56:17.096Z,100.00
2018-01-23T20:58:44.622Z,98.61
2018-01-23T21:01:13.240Z,99.35
2018-01-23T21:03:40.742Z,98.71
2018-01-23T21:06:08.687Z,99.17
2018-01-23T21:08:36.190Z,97.81
2018-01-23T21:11:03.675Z,98.93
2018-01-23T21:13:31.252Z,98.04
2018-01-23T21:15:58.944Z,99.15
2018-01-23T21:18:26.468Z,98.95
2018-01-23T21:23:20.791Z,96.75
2018-01-23T21:25:48.303Z,97.36
2018-01-23T21:28:15.914Z,97.81
2018-01-23T21:30:43.404Z,98.04
2018-01-23T21:33:10.941Z,98.20
2018-01-23T21:35:38.445Z,97.81
2018-01-23T21:38:05.978Z,98.82
2018-01-23T21:40:33.620Z,97.91
2018-01-23T21:43:01.166Z,98.19
2018-01-23T21:45:28.717Z,97.58
2018-01-23T21:47:56.204Z,97.26
2018-01-23T21:50:47.292Z,97.58
2018-01-23T21:53:14.998Z,96.75
2018-01-23T21:55:42.506Z,97.10
2018-01-23T21:58:10.214Z,97.88
2018-01-23T22:00:38.103Z,98.50
2018-01-23T22:03:05.633Z,97.87
2018-01-23T22:05:33.197Z,97.73
2018-01-23T22:08:00.696Z,98.82
2018-01-23T22:10:28.263Z,98.62
2018-01-23T22:12:55.818Z,97.89
2018-01-23T22:15:23.390Z,99.13
2018-01-23T22:17:51.028Z,100.00
2018-01-23T22:20:18.713Z,99.86
2018-01-23T22:22:46.231Z,100.00
2018-01-23T22:25:13.725Z,100.00
2018-01-23T22:27:41.265Z,100.00
2018-01-23T22:30:08.776Z,100.00
2018-01-23T22:32:36.327Z,100.00
2018-01-23T22:35:03.862Z,100.00
2018-01-23T22:37:31.354Z,100.00
2018-01-23T22:39:58.843Z,100.00
2018-01-23T22:42:26.353Z,100.00
2018-01-23T22:44:53.859Z,100.00
2018-01-23T22:47:21.408Z,100.00
2018-01-23T22:49:48.928Z,100.00
2018-01-23T22:52:16.485Z,100.00
2018-01-23T22:54:44.028Z,100.00
2018-01-23T22:57:11.517Z,100.00
2018-01-23T22:59:39.066Z,99.67
2018-01-23T23:02:06.580Z,99.69
2018-01-23T23:04:34.105Z,99.99
2018-01-23T23:07:01.679Z,100.00
2018-01-23T23:09:29.201Z,99.55
2018-01-23T23:11:56.725Z,99.31
2018-01-23T23:14:24.266Z,100.00
2018-01-23T23:16:53.359Z,99.92
2018-01-23T23:19:20.866Z,98.67
2018-01-23T23:21:48.390Z,98.97
2018-01-23T23:24:16.691Z,99.39
2018-01-23T23:26:44.203Z,99.26
2018-01-23T23:29:11.680Z,99.12
2018-01-23T23:31:39.175Z,98.86
2018-01-23T23:34:06.725Z,99.17
2018-01-23T23:36:34.245Z,98.89
2018-01-23T23:39:01.757Z,98.93
2018-01-23T23:41:29.301Z,99.32
2018-01-23T23:43:56.826Z,98.92
2018-01-23T23:46:24.297Z,99.17
2018-01-23T23:48:51.784Z,98.89
2018-01-23T23:51:19.270Z,99.14
2018-01-23T23:53:46.783Z,99.25
2018-01-23T23:56:14.280Z,99.31
2018-01-23T23:58:41.818Z,99.21
